createdAt,value
2019-03-30T00:00:35.609Z,35.23
2019-03-30T00:01:35.619Z,35.33
2019-03-30T00:02:35.856Z,35.23
2019-03-30T00:03:36.587Z,35.33
2019-03-30T00:04:35.567Z,35.23
2019-03-30T00:05:35.573Z,35.33
2019-03-30T00:06:35.561Z,35.13
2019-03-30T00:07:35.552Z,35.41
2019-03-30T00:08:35.543Z,35.53
2019-03-30T00:09:35.531Z,35.03
2019-03-30T00:10:35.572Z,35.53
2019-03-30T00:11:35.570Z,35.23
2019-03-30T00:12:35.537Z,35.23
2019-03-30T00:13:35.533Z,35.41
2019-03-30T00:14:35.534Z,35.41
2019-03-30T00:15:35.513Z,35.43
2019-03-30T00:16:35.508Z,34.71
2019-03-30T00:17:35.494Z,34.93
2019-03-30T00:18:35.479Z,34.93
2019-03-30T00:19:35.486Z,35.33
2019-03-30T00:20:35.470Z,34.61
2019-03-30T00:21:35.460Z,34.91
2019-03-30T00:22:35.510Z,35.23
2019-03-30T00:23:35.444Z,34.93
2019-03-30T00:24:35.440Z,34.51
2019-03-30T00:25:35.425Z,34.73
2019-03-30T00:26:35.427Z,35.21
2019-03-30T00:27:35.428Z,34.71
2019-03-30T00:28:35.421Z,34.83
2019-03-30T00:29:35.399Z,34.73
2019-03-30T00:30:35.393Z,34.91
2019-03-30T00:31:35.381Z,34.63
2019-03-30T00:32:35.389Z,34.43
2019-03-30T00:33:35.476Z,34.53
2019-03-30T00:34:35.359Z,34.63
2019-03-30T00:35:35.380Z,34.61
2019-03-30T00:36:35.354Z,34.43
2019-03-30T00:37:36.379Z,34.83
2019-03-30T00:38:35.365Z,34.91
2019-03-30T00:39:35.372Z,34.63
2019-03-30T00:40:35.377Z,34.91
2019-03-30T00:41:35.355Z,34.51
2019-03-30T00:42:36.365Z,34.71
2019-03-30T00:43:35.360Z,34.81
2019-03-30T00:44:35.391Z,34.91
2019-03-30T00:45:35.343Z,34.71
2019-03-30T00:46:35.337Z,34.71
2019-03-30T00:47:35.405Z,35.11
2019-03-30T00:48:35.385Z,34.71
2019-03-30T00:49:48.156Z,35.13
2019-03-30T00:50:37.340Z,34.71
2019-03-30T00:51:35.331Z,35.01
2019-03-30T00:52:35.325Z,34.93
2019-03-30T00:53:35.335Z,35.01
2019-03-30T00:54:35.331Z,35.01
2019-03-30T00:55:35.313Z,34.81
2019-03-30T00:56:35.311Z,35.01
2019-03-30T00:57:35.309Z,35.01
2019-03-30T00:58:35.300Z,34.81
2019-03-30T00:59:35.288Z,34.91
2019-03-30T01:00:35.290Z,35.01
2019-03-30T01:01:35.268Z,35.01
2019-03-30T01:02:35.252Z,35.01
2019-03-30T01:03:35.247Z,35.03
2019-03-30T01:04:35.253Z,34.91
2019-03-30T01:05:35.241Z,35.01
2019-03-30T01:06:35.226Z,34.81
2019-03-30T01:07:35.219Z,35.01
2019-03-30T01:08:35.204Z,35.01
2019-03-30T01:09:35.218Z,35.03
2019-03-30T01:10:35.205Z,35.01
2019-03-30T01:11:35.188Z,34.93
2019-03-30T01:12:35.212Z,35.01
2019-03-30T01:13:35.174Z,34.91
2019-03-30T01:14:35.179Z,34.93
2019-03-30T01:15:35.157Z,35.03
2019-03-30T01:16:35.156Z,34.93
2019-03-30T01:17:35.138Z,34.63
2019-03-30T01:18:35.147Z,35.03
2019-03-30T01:19:35.124Z,34.83
2019-03-30T01:20:35.113Z,35.23
2019-03-30T01:21:35.116Z,34.91
2019-03-30T01:22:35.114Z,35.01
2019-03-30T01:23:35.093Z,34.91
2019-03-30T01:24:35.086Z,34.83
2019-03-30T01:25:35.088Z,34.83
2019-03-30T01:26:35.074Z,34.91
2019-03-30T01:27:35.090Z,35.21
2019-03-30T01:28:35.059Z,34.93
2019-03-30T01:29:35.049Z,35.23
2019-03-30T01:30:35.050Z,35.23
2019-03-30T01:31:35.037Z,34.91
2019-03-30T01:32:35.286Z,34.83
2019-03-30T01:33:35.034Z,35.23
2019-03-30T01:34:35.036Z,34.81
2019-03-30T01:35:35.026Z,34.83
2019-03-30T01:36:35.007Z,34.93
2019-03-30T01:37:35.004Z,35.23
2019-03-30T01:38:34.996Z,35.13
2019-03-30T01:39:34.999Z,35.13
2019-03-30T01:40:35.007Z,34.93
2019-03-30T01:41:34.985Z,35.23
2019-03-30T01:42:35.002Z,34.81
2019-03-30T01:43:34.968Z,34.93
2019-03-30T01:44:34.958Z,34.81
2019-03-30T01:45:34.948Z,34.91
2019-03-30T01:46:34.954Z,34.93
2019-03-30T01:47:34.953Z,35.13
2019-03-30T01:48:34.956Z,34.73
2019-03-30T01:49:34.937Z,34.83
2019-03-30T01:50:34.933Z,34.93
2019-03-30T01:51:34.913Z,34.83
2019-03-30T01:52:34.902Z,34.71
2019-03-30T01:53:34.902Z,34.83
2019-03-30T01:54:34.896Z,34.73
2019-03-30T01:55:34.936Z,34.51
2019-03-30T01:56:34.887Z,34.81
2019-03-30T01:57:34.867Z,34.71
2019-03-30T01:58:34.888Z,34.73
2019-03-30T01:59:34.862Z,34.81
2019-03-30T02:00:34.852Z,34.73
2019-03-30T02:01:34.901Z,34.73
2019-03-30T02:02:34.847Z,35.01
2019-03-30T02:03:34.856Z,34.81
2019-03-30T02:04:34.848Z,34.33
2019-03-30T02:05:34.828Z,34.43
2019-03-30T02:06:34.828Z,35.01
2019-03-30T02:07:34.816Z,34.33
2019-03-30T02:08:34.813Z,34.73
2019-03-30T02:09:34.824Z,34.83
2019-03-30T02:10:34.809Z,34.33
2019-03-30T02:11:34.790Z,34.63
2019-03-30T02:12:34.779Z,34.33
2019-03-30T02:13:34.778Z,35.03
2019-03-30T02:14:34.783Z,34.83
2019-03-30T02:15:34.753Z,34.33
2019-03-30T02:16:34.752Z,34.43
2019-03-30T02:17:34.754Z,35.03
2019-03-30T02:18:34.744Z,34.83
2019-03-30T02:19:34.728Z,34.33
2019-03-30T02:20:34.720Z,34.33
2019-03-30T02:21:34.708Z,35.03
2019-03-30T02:22:34.707Z,35.03
2019-03-30T02:23:34.694Z,35.03
2019-03-30T02:24:34.687Z,34.93
2019-03-30T02:25:34.689Z,34.33
2019-03-30T02:26:34.687Z,34.73
2019-03-30T02:27:34.662Z,34.33
2019-03-30T02:28:34.658Z,34.43
2019-03-30T02:29:34.654Z,34.93
2019-03-30T02:30:34.664Z,34.93
2019-03-30T02:31:34.646Z,34.93
2019-03-30T02:32:34.642Z,34.93
2019-03-30T02:33:34.619Z,34.83
2019-03-30T02:34:34.625Z,35.03
2019-03-30T02:35:34.629Z,34.12
2019-03-30T02:36:34.635Z,34.93
2019-03-30T02:37:34.614Z,34.33
2019-03-30T02:38:34.609Z,34.33
2019-03-30T02:39:34.589Z,34.12
2019-03-30T02:40:35.600Z,34.33
2019-03-30T02:41:34.598Z,34.12
2019-03-30T02:42:34.584Z,34.33
2019-03-30T02:43:34.568Z,34.73
2019-03-30T02:44:34.583Z,34.12
2019-03-30T02:45:34.568Z,34.33
2019-03-30T02:46:34.559Z,35.03
2019-03-30T02:47:34.568Z,34.53
2019-03-30T02:48:34.564Z,34.03
2019-03-30T02:49:34.568Z,34.33
2019-03-30T02:50:48.413Z,34.33
2019-03-30T02:51:36.551Z,34.83
2019-03-30T02:52:34.532Z,34.73
2019-03-30T02:53:34.534Z,34.33
2019-03-30T02:54:34.516Z,34.33
2019-03-30T02:55:34.515Z,34.12
2019-03-30T02:56:34.498Z,34.33
2019-03-30T02:57:34.500Z,34.12
2019-03-30T02:58:34.480Z,34.33
2019-03-30T02:59:34.485Z,34.33
2019-03-30T03:00:34.494Z,34.33
2019-03-30T03:01:34.465Z,35.03
2019-03-30T03:02:34.477Z,34.12
2019-03-30T03:03:34.452Z,34.33
2019-03-30T03:04:34.463Z,34.12
2019-03-30T03:05:34.456Z,34.33
2019-03-30T03:06:34.444Z,34.23
2019-03-30T03:07:34.436Z,35.03
2019-03-30T03:08:34.431Z,34.33
2019-03-30T03:09:34.414Z,34.73
2019-03-30T03:10:34.408Z,34.03
2019-03-30T03:11:34.425Z,34.33
2019-03-30T03:12:34.402Z,34.23
2019-03-30T03:13:34.394Z,34.12
2019-03-30T03:14:34.377Z,34.33
2019-03-30T03:15:34.374Z,34.03
2019-03-30T03:16:34.353Z,34.12
2019-03-30T03:17:34.353Z,34.43
2019-03-30T03:18:34.367Z,34.83
2019-03-30T03:19:34.366Z,34.83
2019-03-30T03:20:34.342Z,34.83
2019-03-30T03:21:34.317Z,34.12
2019-03-30T03:22:34.311Z,34.14
2019-03-30T03:23:34.310Z,34.33
2019-03-30T03:24:34.319Z,34.33
2019-03-30T03:25:34.312Z,34.33
2019-03-30T03:26:34.295Z,34.14
2019-03-30T03:27:34.277Z,34.33
2019-03-30T03:28:34.280Z,34.33
2019-03-30T03:29:34.279Z,34.33
2019-03-30T03:30:34.258Z,34.23
2019-03-30T03:31:34.249Z,34.33
2019-03-30T03:32:34.238Z,34.12
2019-03-30T03:33:34.233Z,34.33
2019-03-30T03:34:34.227Z,34.23
2019-03-30T03:35:34.311Z,34.05
2019-03-30T03:36:34.236Z,34.73
2019-03-30T03:37:44.425Z,34.63
2019-03-30T03:38:36.227Z,34.23
2019-03-30T03:39:34.211Z,34.53
2019-03-30T03:40:34.202Z,34.33
2019-03-30T03:41:34.194Z,34.14
2019-03-30T03:42:34.176Z,34.03
2019-03-30T03:43:35.157Z,34.33
2019-03-30T03:44:34.155Z,34.12
2019-03-30T03:45:34.162Z,34.23
2019-03-30T03:46:34.131Z,34.14
2019-03-30T03:47:34.130Z,34.93
2019-03-30T03:48:34.116Z,34.33
2019-03-30T03:49:34.121Z,34.33
2019-03-30T03:50:34.110Z,34.33
2019-03-30T03:51:34.101Z,34.12
2019-03-30T03:52:34.080Z,34.83
2019-03-30T03:53:34.076Z,34.33
2019-03-30T03:54:34.080Z,34.12
2019-03-30T03:55:34.059Z,34.03
2019-03-30T03:56:34.066Z,34.64
2019-03-30T03:57:34.062Z,34.24
2019-03-30T03:58:34.048Z,34.12
2019-03-30T03:59:34.026Z,34.03
2019-03-30T04:00:34.026Z,34.94
2019-03-30T04:01:34.013Z,34.23
2019-03-30T04:02:35.004Z,34.63
2019-03-30T04:03:34.018Z,34.34
2019-03-30T04:04:34.001Z,34.64
2019-03-30T04:05:33.989Z,34.64
2019-03-30T04:06:34.004Z,34.14
2019-03-30T04:07:33.976Z,34.14
2019-03-30T04:08:33.959Z,34.14
2019-03-30T04:09:33.965Z,34.94
2019-03-30T04:10:33.947Z,34.33
2019-03-30T04:11:33.967Z,35.05
2019-03-30T04:12:33.930Z,34.33
2019-03-30T04:13:33.931Z,34.34
2019-03-30T04:14:33.916Z,34.33
2019-03-30T04:15:33.907Z,34.33
2019-03-30T04:16:33.899Z,35.05
2019-03-30T04:17:33.898Z,34.14
2019-03-30T04:18:33.893Z,34.12
2019-03-30T04:19:33.872Z,34.12
2019-03-30T04:20:33.894Z,34.03
2019-03-30T04:21:43.859Z,34.33
2019-03-30T04:22:35.881Z,34.53
2019-03-30T04:23:33.848Z,34.63
2019-03-30T04:24:33.832Z,34.63
2019-03-30T04:25:33.829Z,34.63
2019-03-30T04:26:33.819Z,33.83
2019-03-30T04:27:33.813Z,34.93
2019-03-30T04:28:33.825Z,34.11
2019-03-30T04:29:33.795Z,34.61
2019-03-30T04:30:33.792Z,34.51
2019-03-30T04:31:33.785Z,34.51
2019-03-30T04:32:33.795Z,34.51
2019-03-30T04:33:33.810Z,33.91
2019-03-30T04:34:33.804Z,34.11
2019-03-30T04:35:33.795Z,34.11
2019-03-30T04:36:33.822Z,34.21
2019-03-30T04:37:33.767Z,33.89
2019-03-30T04:38:33.798Z,33.80
2019-03-30T04:39:33.753Z,33.80
2019-03-30T04:40:33.771Z,33.29
2019-03-30T04:41:33.759Z,34.00
2019-03-30T04:42:33.749Z,33.59
2019-03-30T04:43:33.742Z,33.50
2019-03-30T04:44:33.762Z,33.39
2019-03-30T04:45:33.721Z,33.59
2019-03-30T04:46:33.721Z,33.98
2019-03-30T04:47:33.711Z,33.58
2019-03-30T04:48:33.701Z,33.78
2019-03-30T04:49:33.867Z,34.18
2019-03-30T04:50:33.703Z,33.88
2019-03-30T04:51:33.693Z,33.98
2019-03-30T04:52:33.702Z,34.08
2019-03-30T04:53:33.712Z,33.68
2019-03-30T04:54:33.675Z,33.98
2019-03-30T04:55:33.664Z,33.76
2019-03-30T04:56:33.650Z,33.68
2019-03-30T04:57:33.652Z,33.88
2019-03-30T04:58:33.638Z,34.16
2019-03-30T04:59:33.631Z,33.78
2019-03-30T05:00:33.634Z,33.36
2019-03-30T05:01:33.616Z,33.96
2019-03-30T05:02:33.620Z,34.06
2019-03-30T05:03:33.604Z,33.76
2019-03-30T05:04:33.618Z,33.96
2019-03-30T05:05:33.623Z,33.47
2019-03-30T05:06:33.611Z,33.96
2019-03-30T05:07:33.579Z,33.47
2019-03-30T05:08:33.570Z,33.26
2019-03-30T05:09:33.556Z,33.36
2019-03-30T05:10:33.561Z,33.56
2019-03-30T05:11:33.562Z,33.56
2019-03-30T05:12:33.557Z,33.96
2019-03-30T05:13:33.547Z,33.96
2019-03-30T05:14:33.553Z,33.47
2019-03-30T05:15:33.549Z,33.38
2019-03-30T05:16:33.545Z,32.98
2019-03-30T05:17:46.952Z,34.06
2019-03-30T05:18:35.531Z,33.96
2019-03-30T05:19:33.528Z,33.96
2019-03-30T05:20:33.512Z,33.36
2019-03-30T05:21:33.543Z,33.47
2019-03-30T05:22:33.487Z,34.08
2019-03-30T05:23:33.482Z,33.96
2019-03-30T05:24:33.471Z,33.26
2019-03-30T05:25:33.466Z,33.96
2019-03-30T05:26:33.562Z,33.96
2019-03-30T05:27:33.449Z,33.36
2019-03-30T05:28:33.445Z,33.08
2019-03-30T05:29:33.434Z,33.86
2019-03-30T05:30:33.436Z,33.56
2019-03-30T05:31:33.412Z,33.56
2019-03-30T05:32:33.415Z,33.86
2019-03-30T05:33:33.394Z,33.47
2019-03-30T05:34:33.397Z,33.66
2019-03-30T05:35:33.385Z,32.97
2019-03-30T05:36:33.402Z,33.47
2019-03-30T05:37:33.707Z,33.56
2019-03-30T05:38:33.358Z,32.67
2019-03-30T05:39:33.355Z,33.36
2019-03-30T05:40:33.339Z,32.97
2019-03-30T05:41:33.381Z,33.66
2019-03-30T05:42:33.327Z,33.47
2019-03-30T05:43:33.324Z,33.04
2019-03-30T05:44:33.320Z,32.55
2019-03-30T05:45:33.306Z,33.15
2019-03-30T05:46:33.323Z,33.75
2019-03-30T05:47:33.285Z,33.65
2019-03-30T05:48:33.289Z,33.65
2019-03-30T05:49:33.277Z,32.85
2019-03-30T05:50:33.498Z,33.35
2019-03-30T05:51:33.267Z,33.45
2019-03-30T05:52:35.674Z,33.75
2019-03-30T05:53:34.255Z,33.43
2019-03-30T05:54:33.241Z,33.53
2019-03-30T05:55:33.237Z,33.73
2019-03-30T05:56:33.235Z,33.73
2019-03-30T05:57:33.230Z,33.33
2019-03-30T05:58:33.230Z,33.23
2019-03-30T05:59:33.231Z,33.03
2019-03-30T06:00:33.211Z,32.63
2019-03-30T06:01:33.202Z,32.53
2019-03-30T06:02:33.189Z,33.12
2019-03-30T06:03:33.195Z,32.43
2019-03-30T06:04:33.202Z,32.53
2019-03-30T06:05:33.186Z,32.71
2019-03-30T06:06:33.179Z,32.71
2019-03-30T06:07:33.174Z,32.71
2019-03-30T06:08:33.183Z,32.62
2019-03-30T06:09:33.159Z,32.62
2019-03-30T06:10:33.175Z,32.92
2019-03-30T06:11:33.141Z,32.62
2019-03-30T06:12:33.139Z,32.71
2019-03-30T06:13:33.128Z,32.92
2019-03-30T06:14:33.122Z,33.31
2019-03-30T06:15:33.123Z,33.31
2019-03-30T06:16:33.109Z,33.10
2019-03-30T06:17:33.093Z,33.31
2019-03-30T06:18:33.088Z,33.00
2019-03-30T06:19:33.088Z,32.70
2019-03-30T06:20:33.078Z,33.20
2019-03-30T06:21:33.057Z,32.70
2019-03-30T06:22:40.326Z,32.70
2019-03-30T06:23:35.070Z,32.80
2019-03-30T06:24:33.064Z,32.40
2019-03-30T06:25:33.062Z,32.10
2019-03-30T06:26:33.053Z,32.80
2019-03-30T06:27:33.045Z,32.70
2019-03-30T06:28:33.031Z,32.80
2019-03-30T06:29:33.021Z,32.90
2019-03-30T06:30:33.033Z,32.80
2019-03-30T06:31:33.034Z,32.80
2019-03-30T06:32:33.081Z,32.80
2019-03-30T06:33:33.010Z,31.79
2019-03-30T06:34:33.003Z,31.59
2019-03-30T06:35:32.991Z,31.79
2019-03-30T06:36:33.002Z,32.59
2019-03-30T06:37:32.983Z,32.09
2019-03-30T06:38:33.002Z,32.89
2019-03-30T06:39:32.992Z,32.48
2019-03-30T06:40:32.979Z,33.08
2019-03-30T06:41:32.978Z,32.48
2019-03-30T06:42:32.975Z,32.98
2019-03-30T06:43:32.955Z,32.48
2019-03-30T06:44:32.948Z,32.29
2019-03-30T06:45:32.945Z,32.47
2019-03-30T06:46:32.934Z,32.97
2019-03-30T06:47:32.933Z,31.87
2019-03-30T06:48:35.902Z,32.17
2019-03-30T06:49:32.908Z,32.27
2019-03-30T06:50:32.900Z,32.27
2019-03-30T06:51:32.897Z,32.47
2019-03-30T06:52:32.905Z,32.17
2019-03-30T06:53:32.882Z,32.17
2019-03-30T06:54:32.866Z,32.45
2019-03-30T06:55:32.858Z,32.47
2019-03-30T06:56:32.854Z,32.47
2019-03-30T06:57:32.851Z,32.27
2019-03-30T06:58:32.845Z,32.27
2019-03-30T06:59:32.831Z,32.17
2019-03-30T07:00:32.830Z,32.27
2019-03-30T07:01:32.815Z,32.45
2019-03-30T07:02:32.820Z,31.96
2019-03-30T07:03:32.814Z,32.26
2019-03-30T07:04:32.787Z,32.26
2019-03-30T07:05:32.780Z,32.15
2019-03-30T07:06:32.772Z,32.26
2019-03-30T07:07:32.764Z,31.86
2019-03-30T07:08:32.758Z,32.45
2019-03-30T07:09:32.746Z,32.45
2019-03-30T07:10:32.738Z,32.35
2019-03-30T07:11:32.746Z,32.35
2019-03-30T07:12:32.732Z,32.56
2019-03-30T07:13:32.735Z,32.35
2019-03-30T07:14:32.731Z,32.44
2019-03-30T07:15:32.713Z,32.45
2019-03-30T07:16:32.710Z,32.45
2019-03-30T07:17:32.695Z,32.14
2019-03-30T07:18:32.687Z,32.35
2019-03-30T07:19:32.692Z,32.44
2019-03-30T07:20:32.680Z,32.15
2019-03-30T07:21:32.670Z,32.34
2019-03-30T07:22:32.663Z,32.34
2019-03-30T07:23:32.648Z,32.24
2019-03-30T07:24:32.664Z,32.24
2019-03-30T07:25:32.641Z,31.84
2019-03-30T07:26:32.628Z,32.24
2019-03-30T07:27:32.616Z,32.34
2019-03-30T07:28:32.608Z,32.54
2019-03-30T07:29:32.600Z,32.24
2019-03-30T07:30:32.597Z,32.24
2019-03-30T07:31:32.585Z,32.24
2019-03-30T07:32:32.577Z,32.24
2019-03-30T07:33:32.569Z,32.34
2019-03-30T07:34:32.571Z,32.23
2019-03-30T07:35:32.721Z,32.23
2019-03-30T07:36:32.566Z,32.23
2019-03-30T07:37:32.564Z,32.23
2019-03-30T07:38:32.558Z,32.32
2019-03-30T07:39:32.553Z,32.12
2019-03-30T07:40:34.051Z,32.12
2019-03-30T07:41:33.548Z,32.12
2019-03-30T07:42:32.535Z,32.23
2019-03-30T07:43:32.533Z,32.62
2019-03-30T07:44:32.520Z,32.03
2019-03-30T07:45:32.528Z,32.12
2019-03-30T07:46:32.527Z,31.93
2019-03-30T07:47:32.524Z,32.01
2019-03-30T07:48:33.510Z,32.21
2019-03-30T07:49:32.525Z,32.11
2019-03-30T07:50:32.503Z,32.11
2019-03-30T07:51:33.656Z,32.21
2019-03-30T07:52:33.473Z,32.60
2019-03-30T07:53:43.896Z,32.31
2019-03-30T07:54:34.475Z,32.71
2019-03-30T07:55:32.457Z,32.21
2019-03-30T07:56:32.540Z,32.09
2019-03-30T07:57:32.446Z,32.09
2019-03-30T07:58:32.432Z,32.20
2019-03-30T07:59:32.435Z,32.39
2019-03-30T08:00:32.416Z,32.11
2019-03-30T08:01:32.413Z,32.09
2019-03-30T08:02:32.415Z,32.09
2019-03-30T08:03:32.409Z,32.39
2019-03-30T08:04:32.402Z,32.29
2019-03-30T08:05:32.389Z,32.49
2019-03-30T08:06:32.400Z,32.29
2019-03-30T08:07:32.475Z,32.57
2019-03-30T08:08:33.400Z,32.48
2019-03-30T08:09:32.397Z,32.18
2019-03-30T08:10:32.395Z,31.68
2019-03-30T08:11:32.377Z,32.38
2019-03-30T08:12:32.373Z,31.57
2019-03-30T08:13:32.372Z,31.37
2019-03-30T08:14:32.359Z,31.37
2019-03-30T08:15:32.348Z,31.85
2019-03-30T08:16:32.343Z,31.95
2019-03-30T08:17:32.331Z,32.05
2019-03-30T08:18:32.342Z,31.85
2019-03-30T08:19:32.322Z,31.14
2019-03-30T08:20:32.309Z,30.35
2019-03-30T08:21:32.297Z,31.02
2019-03-30T08:22:32.305Z,30.63
2019-03-30T08:23:40.195Z,30.73
2019-03-30T08:24:34.289Z,30.50
2019-03-30T08:25:32.272Z,29.91
2019-03-30T08:26:35.494Z,30.39
2019-03-30T08:27:32.251Z,29.90
2019-03-30T08:28:32.236Z,29.58
2019-03-30T08:29:32.238Z,30.06
2019-03-30T08:30:32.225Z,29.47
2019-03-30T08:31:32.215Z,28.66
2019-03-30T08:32:32.213Z,29.14
2019-03-30T08:33:32.203Z,28.14
2019-03-30T08:34:32.201Z,28.52
2019-03-30T08:35:32.188Z,28.02
2019-03-30T08:36:32.187Z,28.10
2019-03-30T08:37:32.184Z,28.27
2019-03-30T08:38:32.175Z,27.28
2019-03-30T08:39:32.171Z,27.26
2019-03-30T08:40:32.158Z,26.46
2019-03-30T08:41:32.150Z,26.64
2019-03-30T08:42:32.209Z,25.94
2019-03-30T08:43:32.152Z,25.43
2019-03-30T08:44:32.146Z,25.32
2019-03-30T08:45:32.131Z,25.40
2019-03-30T08:46:32.116Z,25.20
2019-03-30T08:47:32.114Z,24.99
2019-03-30T08:48:32.106Z,24.49
2019-03-30T08:49:32.095Z,23.80
2019-03-30T08:50:32.106Z,24.37
2019-03-30T08:51:32.073Z,23.97
2019-03-30T08:52:33.070Z,24.05
2019-03-30T08:53:32.081Z,23.16
2019-03-30T08:54:32.070Z,23.26
2019-03-30T08:55:32.039Z,22.56
2019-03-30T08:56:33.045Z,22.95
2019-03-30T08:57:32.036Z,22.94
2019-03-30T08:58:32.033Z,22.05
2019-03-30T08:59:32.020Z,22.03
2019-03-30T09:00:32.003Z,21.92
2019-03-30T09:01:32.012Z,21.43
2019-03-30T09:02:32.006Z,21.32
2019-03-30T09:03:34.008Z,21.71
2019-03-30T09:04:32.964Z,21.71
2019-03-30T09:05:32.967Z,21.70
2019-03-30T09:06:31.975Z,21.41
2019-03-30T09:07:31.973Z,21.22
2019-03-30T09:08:31.957Z,20.81
2019-03-30T09:09:31.950Z,20.91
2019-03-30T09:10:31.967Z,20.22
2019-03-30T09:11:31.981Z,20.42
2019-03-30T09:12:31.954Z,20.31
2019-03-30T09:13:31.956Z,20.40
2019-03-30T09:14:31.934Z,19.91
2019-03-30T09:15:31.945Z,20.10
2019-03-30T09:16:31.963Z,20.30
2019-03-30T09:17:31.917Z,20.48
2019-03-30T09:18:31.903Z,20.48
2019-03-30T09:19:31.895Z,19.32
2019-03-30T09:20:31.909Z,20.18
2019-03-30T09:21:31.907Z,19.40
2019-03-30T09:22:31.900Z,19.88
2019-03-30T09:23:31.884Z,20.17
2019-03-30T09:24:31.874Z,19.68
2019-03-30T09:25:31.873Z,19.29
2019-03-30T09:26:31.860Z,19.47
2019-03-30T09:27:31.898Z,19.57
2019-03-30T09:28:31.871Z,19.95
2019-03-30T09:29:31.860Z,20.14
2019-03-30T09:30:31.854Z,19.45
2019-03-30T09:31:31.849Z,19.65
2019-03-30T09:32:31.835Z,18.59
2019-03-30T09:33:31.836Z,18.68
2019-03-30T09:34:31.823Z,19.07
2019-03-30T09:35:31.817Z,19.17
2019-03-30T09:36:31.926Z,18.96
2019-03-30T09:37:31.799Z,18.68
2019-03-30T09:38:31.796Z,18.77
2019-03-30T09:39:31.794Z,19.07
2019-03-30T09:40:31.773Z,18.97
2019-03-30T09:41:31.778Z,19.17
2019-03-30T09:42:31.760Z,19.66
2019-03-30T09:43:31.753Z,19.86
2019-03-30T09:44:31.749Z,19.86
2019-03-30T09:45:31.737Z,19.68
2019-03-30T09:46:31.726Z,19.49
2019-03-30T09:47:31.721Z,19.68
2019-03-30T09:48:31.733Z,19.99
2019-03-30T09:49:31.726Z,20.29
2019-03-30T09:50:31.760Z,20.49
2019-03-30T09:51:31.735Z,20.21
2019-03-30T09:52:31.825Z,20.32
2019-03-30T09:53:31.741Z,21.02
2019-03-30T09:54:31.744Z,21.12
2019-03-30T09:55:31.732Z,22.11
2019-03-30T09:56:31.722Z,21.44
2019-03-30T09:57:31.708Z,21.64
2019-03-30T09:58:31.713Z,22.05
2019-03-30T09:59:31.706Z,22.45
2019-03-30T10:00:31.699Z,22.85
2019-03-30T10:01:31.687Z,23.14
2019-03-30T10:02:31.692Z,22.38
2019-03-30T10:03:31.689Z,23.57
2019-03-30T10:04:31.681Z,23.27
2019-03-30T10:05:31.683Z,23.68
2019-03-30T10:06:34.664Z,23.87
2019-03-30T10:07:32.656Z,24.08
2019-03-30T10:08:31.657Z,23.59
2019-03-30T10:09:31.657Z,23.99
2019-03-30T10:10:31.660Z,23.99
2019-03-30T10:11:31.649Z,23.80
2019-03-30T10:12:31.634Z,23.90
2019-03-30T10:13:31.623Z,23.60
2019-03-30T10:14:31.615Z,23.80
2019-03-30T10:15:31.625Z,23.80
2019-03-30T10:16:31.616Z,24.27
2019-03-30T10:17:31.595Z,23.77
2019-03-30T10:18:31.588Z,23.76
2019-03-30T10:19:31.578Z,23.36
2019-03-30T10:20:31.587Z,22.76
2019-03-30T10:21:31.582Z,22.95
2019-03-30T10:22:31.572Z,22.14
2019-03-30T10:23:31.568Z,21.75
2019-03-30T10:24:38.013Z,22.02
2019-03-30T10:25:33.550Z,21.33
2019-03-30T10:26:31.551Z,21.71
2019-03-30T10:27:31.537Z,20.92
2019-03-30T10:28:31.528Z,21.30
2019-03-30T10:29:31.520Z,20.91
2019-03-30T10:30:31.502Z,20.22
2019-03-30T10:31:32.513Z,19.91
2019-03-30T10:32:31.498Z,20.20
2019-03-30T10:33:31.516Z,20.29
2019-03-30T10:34:31.481Z,20.48
2019-03-30T10:35:31.472Z,19.42
2019-03-30T10:36:31.489Z,19.68
2019-03-30T10:37:31.467Z,20.07
2019-03-30T10:38:31.450Z,19.58
2019-03-30T10:39:31.443Z,19.00
2019-03-30T10:40:31.477Z,19.48
2019-03-30T10:41:31.431Z,19.68
2019-03-30T10:42:31.436Z,19.58
2019-03-30T10:43:31.413Z,19.47
2019-03-30T10:44:31.432Z,20.06
2019-03-30T10:45:31.421Z,19.96
2019-03-30T10:46:31.414Z,19.57
2019-03-30T10:47:31.418Z,19.96
2019-03-30T10:48:31.500Z,19.57
2019-03-30T10:49:31.402Z,19.96
2019-03-30T10:50:31.390Z,19.57
2019-03-30T10:51:31.391Z,19.87
2019-03-30T10:52:31.381Z,19.78
2019-03-30T10:53:31.382Z,19.48
2019-03-30T10:54:31.361Z,19.58
2019-03-30T10:55:31.368Z,19.58
2019-03-30T10:56:31.357Z,19.68
2019-03-30T10:57:31.354Z,19.78
2019-03-30T10:58:31.352Z,19.79
2019-03-30T10:59:31.337Z,19.70
2019-03-30T11:00:31.336Z,20.48
2019-03-30T11:01:31.319Z,20.30
2019-03-30T11:02:31.319Z,20.22
2019-03-30T11:03:31.395Z,21.12
2019-03-30T11:04:31.307Z,21.43
2019-03-30T11:05:31.294Z,21.35
2019-03-30T11:06:31.356Z,21.77
2019-03-30T11:07:31.306Z,22.37
2019-03-30T11:08:31.293Z,22.69
2019-03-30T11:09:31.293Z,23.79
2019-03-30T11:10:31.273Z,24.48
2019-03-30T11:11:31.271Z,24.99
2019-03-30T11:12:31.265Z,25.11
2019-03-30T11:13:31.256Z,25.03
2019-03-30T11:14:31.293Z,25.93
2019-03-30T11:15:33.870Z,26.14
2019-03-30T11:16:32.236Z,25.95
2019-03-30T11:17:31.227Z,26.35
2019-03-30T11:18:31.229Z,26.26
2019-03-30T11:19:31.256Z,26.97
2019-03-30T11:20:31.208Z,26.78
2019-03-30T11:21:31.201Z,26.88
2019-03-30T11:22:31.193Z,27.87
2019-03-30T11:23:31.185Z,27.87
2019-03-30T11:24:31.177Z,27.99
2019-03-30T11:25:31.192Z,28.09
2019-03-30T11:26:31.166Z,28.20
2019-03-30T11:27:31.155Z,27.81
2019-03-30T11:28:31.150Z,27.82
2019-03-30T11:29:31.143Z,28.11
2019-03-30T11:30:31.166Z,28.33
2019-03-30T11:31:31.145Z,28.82
2019-03-30T11:32:31.142Z,28.62
2019-03-30T11:33:31.146Z,28.34
2019-03-30T11:34:31.136Z,27.94
2019-03-30T11:35:31.130Z,28.05
2019-03-30T11:36:31.120Z,28.85
2019-03-30T11:37:31.115Z,29.34
2019-03-30T11:38:31.106Z,29.14
2019-03-30T11:39:31.108Z,28.96
2019-03-30T11:40:31.107Z,28.55
2019-03-30T11:41:31.105Z,29.25
2019-03-30T11:42:31.096Z,29.36
2019-03-30T11:43:31.145Z,29.65
2019-03-30T11:44:31.087Z,29.37
2019-03-30T11:45:31.082Z,29.86
2019-03-30T11:46:31.108Z,29.57
2019-03-30T11:47:31.082Z,29.66
2019-03-30T11:48:31.079Z,29.88
2019-03-30T11:49:31.073Z,29.58
2019-03-30T11:50:31.060Z,29.68
2019-03-30T11:51:31.094Z,29.68
2019-03-30T11:52:31.043Z,29.69
2019-03-30T11:53:31.031Z,29.90
2019-03-30T11:54:31.033Z,29.99
2019-03-30T11:55:31.018Z,29.30
2019-03-30T11:56:31.019Z,30.29
2019-03-30T11:57:31.010Z,30.10
2019-03-30T11:58:30.991Z,30.29
2019-03-30T11:59:30.990Z,30.29
2019-03-30T12:00:30.989Z,30.40
2019-03-30T12:01:30.989Z,29.81
2019-03-30T12:02:30.976Z,30.10
2019-03-30T12:03:30.959Z,29.91
2019-03-30T12:04:30.956Z,30.41
2019-03-30T12:05:30.950Z,30.52
2019-03-30T12:06:30.952Z,30.81
2019-03-30T12:07:30.959Z,30.71
2019-03-30T12:08:30.932Z,30.71
2019-03-30T12:09:30.929Z,30.91
2019-03-30T12:10:30.931Z,30.71
2019-03-30T12:11:30.921Z,30.71
2019-03-30T12:12:30.910Z,30.71
2019-03-30T12:13:30.900Z,30.73
2019-03-30T12:14:30.901Z,30.43
2019-03-30T12:15:30.901Z,30.73
2019-03-30T12:16:30.896Z,30.43
2019-03-30T12:17:30.902Z,30.53
2019-03-30T12:18:30.898Z,30.43
2019-03-30T12:19:30.867Z,31.02
2019-03-30T12:20:30.859Z,31.34
2019-03-30T12:21:30.858Z,31.54
2019-03-30T12:22:30.858Z,31.34
2019-03-30T12:23:30.855Z,31.34
2019-03-30T12:24:30.839Z,32.03
2019-03-30T12:25:35.789Z,31.24
2019-03-30T12:26:32.832Z,31.24
2019-03-30T12:27:30.808Z,31.75
2019-03-30T12:28:30.813Z,31.74
2019-03-30T12:29:30.805Z,31.54
2019-03-30T12:30:30.798Z,32.03
2019-03-30T12:31:30.783Z,32.05
2019-03-30T12:32:30.770Z,31.54
2019-03-30T12:33:30.766Z,31.55
2019-03-30T12:34:30.771Z,31.44
2019-03-30T12:35:30.745Z,31.95
2019-03-30T12:36:30.778Z,32.05
2019-03-30T12:37:30.737Z,31.55
2019-03-30T12:38:30.750Z,31.85
2019-03-30T12:39:30.722Z,31.26
2019-03-30T12:40:30.716Z,31.47
2019-03-30T12:41:30.718Z,31.55
2019-03-30T12:42:30.701Z,31.37
2019-03-30T12:43:30.693Z,31.57
2019-03-30T12:44:30.685Z,31.57
2019-03-30T12:45:30.683Z,31.47
2019-03-30T12:46:30.682Z,31.57
2019-03-30T12:47:30.661Z,31.67
2019-03-30T12:48:30.657Z,31.27
2019-03-30T12:49:30.645Z,32.26
2019-03-30T12:50:30.642Z,32.36
2019-03-30T12:51:30.625Z,32.36
2019-03-30T12:52:30.620Z,31.47